Terminal Aerodrome Forecast
Issued by NWS Omaha/Valley, NE

Home | Current Version | Previous Version | Text Only | Print | Product List | Glossary Off
Versions: 1 2 3 4 5 6 7 8 9 10 11 12 13 14 15 16 17 18 19 20 21 22 23 24 25 26 27 28 29 30 31 32 33 34 35

000
FTUS43 KOAX 250713 AAA
TAFOFK
TAF AMD
KOFK 250713Z 2507/2606 33024G36KT P6SM SCT008 OVC015
      TEMPO 2509/2513 6SM -RASN OVC008
     FM251300 34020G30KT P6SM OVC015
     FM251700 34015G25KT P6SM OVC015
     FM252000 33013KT P6SM OVC025
     FM260100 29005KT P6SM BKN050=

USA.gov is the U.S. government's official web portal to all federal, state and local government web resources and services.